Time;durP1;ratioP1;P1;durP2;ratioP2;P2;SDS_P1;SDS_P2;PMS_P1;PMS_P2;Temp;Humidity;BMP_temperature;BMP_pressure;BME280_temperature;BME280_humidity;BME280_pressure;Samples;Min_cycle;Max_cycle;Signal;HPM_P1;HPM_P2
2023/10/29 00:02:18;;;;;;;0.10;0.10;;;11.90;99.90;;;;;;5069839;28;20549;-77
2023/10/29 00:04:44;;;;;;;0.10;0.10;;;11.70;99.90;;;;;;5068456;28;20307;-77
2023/10/29 00:07:09;;;;;;;0.10;0.10;;;11.70;99.90;;;;;;5070781;28;20196;-77
2023/10/29 00:09:35;;;;;;;0.10;0.10;;;11.60;99.90;;;;;;5070666;28;20641;-77
2023/10/29 00:12:00;;;;;;;0.00;0.00;;;11.60;99.90;;;;;;5065633;28;20278;-77
2023/10/29 00:14:26;;;;;;;0.07;0.07;;;11.50;99.90;;;;;;5068181;28;20238;-77
2023/10/29 00:16:52;;;;;;;0.10;0.10;;;11.50;99.90;;;;;;5070844;28;20602;-77
2023/10/29 00:19:17;;;;;;;0.10;0.10;;;11.60;99.90;;;;;;5071262;28;20190;-78
2023/10/29 00:21:43;;;;;;;0.10;0.10;;;11.60;99.90;;;;;;5070114;28;20213;-78
2023/10/29 00:24:09;;;;;;;0.10;0.10;;;11.60;99.90;;;;;;5071576;28;20255;-78
2023/10/29 00:26:34;;;;;;;0.00;0.00;;;11.60;99.90;;;;;;5066667;28;20655;-77
2023/10/29 00:29:00;;;;;;;0.00;0.00;;;11.60;99.90;;;;;;5070119;28;20209;-78
2023/10/29 00:31:26;;;;;;;0.10;0.10;;;11.60;99.90;;;;;;5070894;28;20230;-78
2023/10/29 00:33:52;;;;;;;0.10;0.10;;;11.60;99.90;;;;;;5071250;28;20196;-77
2023/10/29 00:36:17;;;;;;;0.10;0.10;;;11.80;99.90;;;;;;5069547;28;20527;-77
2023/10/29 00:38:43;;;;;;;0.10;0.10;;;11.80;99.90;;;;;;5070234;28;20188;-78
2023/10/29 00:41:08;;;;;;;0.10;0.10;;;11.90;99.90;;;;;;5065288;28;20687;-78
2023/10/29 00:43:40;;;;;;;0.10;0.10;;;11.80;99.90;;;;;;5069372;28;20220;-78
2023/10/29 00:46:05;;;;;;;0.10;0.10;;;11.90;99.90;;;;;;5069357;28;20256;-78
2023/10/29 00:48:32;;;;;;;0.10;0.10;;;11.90;99.90;;;;;;5065147;28;20181;-78
2023/10/29 00:50:58;;;;;;;0.00;0.00;;;11.90;99.90;;;;;;5070049;28;20212;-77
2023/10/29 00:53:25;;;;;;;0.10;0.10;;;11.80;99.90;;;;;;5070440;28;21182;-78
2023/10/29 00:55:51;;;;;;;0.10;0.10;;;12.00;99.90;;;;;;5070167;28;20182;-78
2023/10/29 00:58:19;;;;;;;0.10;0.10;;;12.10;99.90;;;;;;5068492;28;20267;-78
2023/10/29 01:00:45;;;;;;;0.10;0.10;;;12.20;99.90;;;;;;5068293;28;20213;-78
2023/10/29 01:03:11;;;;;;;0.10;0.10;;;12.30;99.90;;;;;;5064356;28;20669;-78
2023/10/29 01:05:40;;;;;;;0.10;0.10;;;12.40;99.90;;;;;;5069075;28;20182;-78
2023/10/29 01:08:07;;;;;;;0.10;0.10;;;12.40;99.90;;;;;;5069389;28;20178;-77
2023/10/29 01:10:33;;;;;;;0.10;0.10;;;12.40;99.90;;;;;;5067560;28;20209;-77
2023/10/29 01:12:58;;;;;;;0.10;0.10;;;12.40;99.90;;;;;;5068826;28;20645;-77
2023/10/29 01:15:24;;;;;;;0.10;0.10;;;12.40;99.90;;;;;;5069914;28;20646;-77
2023/10/29 01:17:49;;;;;;;0.10;0.10;;;12.40;99.90;;;;;;5065886;28;20309;-77
2023/10/29 01:20:15;;;;;;;0.00;0.00;;;12.30;99.90;;;;;;5067220;28;20201;-77
2023/10/29 01:22:40;;;;;;;0.10;0.10;;;12.40;99.90;;;;;;5066093;28;20189;-77
2023/10/29 01:25:10;;;;;;;0.00;0.00;;;12.40;99.90;;;;;;5064888;28;20180;-78
2023/10/29 01:27:36;;;;;;;0.00;0.00;;;12.40;99.90;;;;;;5067279;28;20608;-78
2023/10/29 01:30:04;;;;;;;0.03;0.03;;;12.30;99.90;;;;;;5068363;28;20194;-77
2023/10/29 01:32:29;;;;;;;0.10;0.10;;;12.40;99.90;;;;;;5085476;28;20605;-77
2023/10/29 01:34:55;;;;;;;0.10;0.10;;;12.30;99.90;;;;;;5067494;28;20174;-77
2023/10/29 01:37:20;;;;;;;0.10;0.10;;;12.10;99.90;;;;;;5069522;28;20193;-78
2023/10/29 01:39:46;;;;;;;0.10;0.10;;;12.00;99.90;;;;;;5067760;28;20210;-77
2023/10/29 01:42:11;;;;;;;0.10;0.10;;;12.10;99.90;;;;;;5068067;28;20323;-77
2023/10/29 01:44:37;;;;;;;0.10;0.10;;;12.10;99.90;;;;;;5064967;28;20266;-77
2023/10/29 01:47:03;;;;;;;0.10;0.10;;;12.20;99.90;;;;;;5065079;28;20184;-77
2023/10/29 01:49:29;;;;;;;0.03;0.03;;;12.30;99.90;;;;;;5069194;28;20189;-77
2023/10/29 01:51:55;;;;;;;0.03;0.03;;;12.30;99.90;;;;;;5067712;28;20205;-77
2023/10/29 01:54:22;;;;;;;0.10;0.10;;;12.30;99.90;;;;;;5068097;28;20220;-77
2023/10/29 01:56:47;;;;;;;0.10;0.10;;;12.40;99.90;;;;;;5060906;28;20598;-77
2023/10/29 01:59:14;;;;;;;0.10;0.10;;;12.20;99.90;;;;;;5063969;28;20331;-77
2023/10/29 02:01:40;;;;;;;0.03;0.03;;;12.00;99.90;;;;;;5068663;28;20581;-77
2023/10/29 02:04:12;;;;;;;0.10;0.10;;;11.80;99.90;;;;;;5067461;28;20231;-78
2023/10/29 02:06:39;;;;;;;0.10;0.10;;;11.80;99.90;;;;;;5067177;28;20192;-77
2023/10/29 02:09:09;;;;;;;0.10;0.10;;;11.70;99.90;;;;;;5064308;28;20193;-78
2023/10/29 02:11:38;;;;;;;0.10;0.10;;;11.70;99.90;;;;;;5069143;28;20253;-78
2023/10/29 02:14:07;;;;;;;0.10;0.10;;;11.80;99.90;;;;;;5067089;28;20192;-78
2023/10/29 02:16:33;;;;;;;0.10;0.10;;;12.00;99.90;;;;;;5067277;28;20189;-77
2023/10/29 02:18:59;;;;;;;0.10;0.10;;;11.90;99.90;;;;;;5063584;28;20196;-77
2023/10/29 02:21:25;;;;;;;0.10;0.10;;;12.00;99.90;;;;;;5066315;28;20581;-77
2023/10/29 02:23:52;;;;;;;0.10;0.10;;;12.20;99.90;;;;;;5061726;28;21134;-77
2023/10/29 02:26:18;;;;;;;0.10;0.10;;;12.30;99.90;;;;;;5066784;28;20189;-77
2023/10/29 02:28:43;;;;;;;0.10;0.10;;;12.30;99.90;;;;;;5065421;28;20181;-77
2023/10/29 02:31:16;;;;;;;0.00;0.00;;;12.40;99.90;;;;;;5065602;28;20201;-77
2023/10/29 02:33:43;;;;;;;0.10;0.10;;;12.40;99.90;;;;;;5067657;28;20190;-78
2023/10/29 02:36:09;;;;;;;0.10;0.10;;;12.40;99.90;;;;;;5067798;28;20184;-78
2023/10/29 02:38:34;;;;;;;0.10;0.10;;;12.40;99.90;;;;;;5065981;28;20205;-77
2023/10/29 02:41:00;;;;;;;0.10;0.10;;;12.40;99.90;;;;;;5063101;28;20313;-77
2023/10/29 02:43:26;;;;;;;0.00;0.00;;;12.40;99.90;;;;;;5068847;28;20215;-77
2023/10/29 02:45:52;;;;;;;0.00;0.00;;;12.40;99.90;;;;;;5059707;28;20226;-77
2023/10/29 02:48:17;;;;;;;0.10;0.10;;;12.40;99.90;;;;;;5068220;28;20206;-77
2023/10/29 02:50:43;;;;;;;0.10;0.10;;;12.10;99.90;;;;;;5062988;28;20644;-77
2023/10/29 02:53:08;;;;;;;0.10;0.10;;;12.00;99.90;;;;;;5067805;28;20192;-77
2023/10/29 02:55:34;;;;;;;0.10;0.10;;;11.90;99.90;;;;;;5067381;28;20256;-77
2023/10/29 02:58:01;;;;;;;0.00;0.00;;;12.00;99.90;;;;;;5061174;28;20190;-77
2023/10/29 03:00:26;;;;;;;0.10;0.10;;;12.00;99.90;;;;;;5068838;28;20205;-78
2023/10/29 03:02:52;;;;;;;0.10;0.10;;;12.10;99.90;;;;;;5065324;28;20571;-77
2023/10/29 03:05:17;;;;;;;0.10;0.10;;;12.20;99.90;;;;;;5067154;28;20195;-77
2023/10/29 03:07:43;;;;;;;0.00;0.00;;;12.00;99.90;;;;;;5068480;28;20697;-77
2023/10/29 03:10:09;;;;;;;0.10;0.10;;;12.10;99.90;;;;;;5067671;28;20206;-77
2023/10/29 03:12:35;;;;;;;0.10;0.10;;;12.10;99.90;;;;;;5068381;28;20649;-77
2023/10/29 03:15:01;;;;;;;0.00;0.00;;;12.20;99.90;;;;;;5072393;28;20654;-77
2023/10/29 03:17:26;;;;;;;0.10;0.10;;;12.20;99.90;;;;;;5071289;28;20216;-77
2023/10/29 03:19:52;;;;;;;0.10;0.10;;;12.30;99.90;;;;;;5066999;28;20213;-77
2023/10/29 03:22:17;;;;;;;0.00;0.00;;;12.30;99.90;;;;;;5067653;28;20196;-77
2023/10/29 03:24:43;;;;;;;0.10;0.10;;;12.20;99.90;;;;;;5072176;28;20617;-77
2023/10/29 03:27:08;;;;;;;0.10;0.10;;;12.10;99.90;;;;;;5067409;28;20182;-77
2023/10/29 03:29:34;;;;;;;0.10;0.10;;;12.00;99.90;;;;;;5069472;28;20191;-77
2023/10/29 03:32:00;;;;;;;0.10;0.10;;;12.00;99.90;;;;;;5067877;28;20209;-77
2023/10/29 03:34:26;;;;;;;0.00;0.00;;;12.10;99.90;;;;;;5071041;28;20236;-77
2023/10/29 03:36:51;;;;;;;0.10;0.10;;;12.00;99.90;;;;;;5067292;28;21163;-77
2023/10/29 03:39:17;;;;;;;0.10;0.10;;;12.10;99.90;;;;;;5061694;28;20600;-77
2023/10/29 03:41:42;;;;;;;0.10;0.10;;;12.20;99.90;;;;;;5069242;28;20202;-78
2023/10/29 03:44:08;;;;;;;0.10;0.10;;;12.30;99.90;;;;;;5069409;28;20574;-78
2023/10/29 03:46:34;;;;;;;0.10;0.10;;;12.30;99.90;;;;;;5069469;28;20329;-77
2023/10/29 03:48:59;;;;;;;0.10;0.10;;;12.30;99.90;;;;;;5068267;28;20649;-78
2023/10/29 03:51:28;;;;;;;0.00;0.00;;;12.40;99.90;;;;;;5071345;28;20203;-77
2023/10/29 03:53:54;;;;;;;0.03;0.03;;;12.40;99.90;;;;;;5067814;28;20186;-77
2023/10/29 03:56:19;;;;;;;0.10;0.10;;;12.50;99.90;;;;;;5070641;28;20190;-77
2023/10/29 03:58:45;;;;;;;0.10;0.10;;;12.50;99.90;;;;;;5069339;28;20194;-77
2023/10/29 04:01:14;;;;;;;0.00;0.00;;;12.60;99.90;;;;;;5070647;28;20548;-77
2023/10/29 04:03:46;;;;;;;0.10;0.10;;;12.40;99.90;;;;;;5067851;28;20193;-78
2023/10/29 04:06:11;;;;;;;0.10;0.10;;;12.50;99.90;;;;;;5069611;28;20270;-77
2023/10/29 04:08:38;;;;;;;0.10;0.10;;;12.50;99.90;;;;;;5070272;28;20780;-78
2023/10/29 04:11:04;;;;;;;0.10;0.10;;;12.50;99.90;;;;;;5071151;28;20224;-77
2023/10/29 04:13:33;;;;;;;0.10;0.10;;;12.60;99.90;;;;;;5071076;28;20182;-77
2023/10/29 04:15:59;;;;;;;0.10;0.10;;;12.60;99.90;;;;;;5069820;28;20201;-77
2023/10/29 04:18:27;;;;;;;0.10;0.10;;;12.60;99.90;;;;;;5069553;28;20209;-77
2023/10/29 04:20:54;;;;;;;0.00;0.00;;;12.60;99.90;;;;;;5068812;28;20222;-77
2023/10/29 04:23:19;;;;;;;0.10;0.10;;;12.70;99.90;;;;;;5070134;28;20210;-78
2023/10/29 04:25:45;;;;;;;0.10;0.10;;;12.60;99.90;;;;;;5070375;28;20190;-77
2023/10/29 04:28:10;;;;;;;0.10;0.10;;;12.70;99.90;;;;;;5068997;28;20175;-77
2023/10/29 04:30:36;;;;;;;0.00;0.00;;;12.50;99.90;;;;;;5069929;28;20247;-77
2023/10/29 04:33:02;;;;;;;0.10;0.10;;;12.50;99.90;;;;;;5064443;28;20174;-78
2023/10/29 04:35:29;;;;;;;0.03;0.03;;;12.60;99.90;;;;;;5070737;28;20185;-78
2023/10/29 04:37:55;;;;;;;0.10;0.10;;;12.60;99.90;;;;;;5069402;28;20788;-78
2023/10/29 04:40:20;;;;;;;0.10;0.10;;;12.70;99.90;;;;;;5060140;28;20286;-77
2023/10/29 04:42:46;;;;;;;0.10;0.10;;;12.70;99.90;;;;;;5063675;28;20245;-77
2023/10/29 04:45:11;;;;;;;0.00;0.00;;;12.70;99.90;;;;;;5065608;28;20189;-78
2023/10/29 04:47:37;;;;;;;0.10;0.10;;;12.70;99.90;;;;;;5068216;28;20178;-77
2023/10/29 04:50:03;;;;;;;0.10;0.10;;;12.70;99.90;;;;;;5059569;28;20261;-77
2023/10/29 04:52:29;;;;;;;0.10;0.10;;;12.70;99.90;;;;;;5060123;28;20187;-77
2023/10/29 04:54:54;;;;;;;0.10;0.10;;;12.70;99.90;;;;;;5067557;28;20832;-77
2023/10/29 04:57:21;;;;;;;0.10;0.10;;;12.80;99.90;;;;;;5062937;28;20188;-77
2023/10/29 04:59:48;;;;;;;0.07;0.07;;;12.90;99.90;;;;;;5059550;28;20186;-77
2023/10/29 05:02:15;;;;;;;0.10;0.10;;;13.00;99.90;;;;;;5063487;28;20638;-77
2023/10/29 05:04:41;;;;;;;0.10;0.10;;;13.00;99.90;;;;;;5062407;28;20203;-78
2023/10/29 05:07:08;;;;;;;0.10;0.10;;;12.90;99.90;;;;;;5061057;28;20195;-77
2023/10/29 05:09:34;;;;;;;0.10;0.10;;;12.90;99.90;;;;;;5068015;28;20188;-78
2023/10/29 05:11:59;;;;;;;0.00;0.00;;;12.90;99.90;;;;;;5064066;28;20564;-78
2023/10/29 05:14:25;;;;;;;0.10;0.10;;;12.80;99.90;;;;;;5067041;28;20183;-78
2023/10/29 05:16:52;;;;;;;0.10;0.10;;;12.70;99.90;;;;;;5068405;28;20202;-77
2023/10/29 05:19:17;;;;;;;0.10;0.10;;;12.70;99.90;;;;;;5069077;28;20288;-77
2023/10/29 05:21:43;;;;;;;0.10;0.10;;;12.70;99.90;;;;;;5067943;28;20230;-77
2023/10/29 05:24:09;;;;;;;0.10;0.10;;;12.60;99.90;;;;;;5067670;28;20220;-78
2023/10/29 05:26:37;;;;;;;0.10;0.10;;;12.60;99.90;;;;;;5063351;28;20183;-78
2023/10/29 05:29:03;;;;;;;0.10;0.10;;;12.60;99.90;;;;;;5066312;28;20210;-77
2023/10/29 05:31:29;;;;;;;0.07;0.07;;;12.70;99.90;;;;;;5064855;28;20223;-78
2023/10/29 05:33:54;;;;;;;0.03;0.03;;;12.80;99.90;;;;;;5066050;28;20187;-78
2023/10/29 05:36:20;;;;;;;0.10;0.10;;;12.80;99.90;;;;;;5064552;28;20723;-78
2023/10/29 05:38:45;;;;;;;0.10;0.10;;;12.90;99.90;;;;;;5068690;28;20192;-77
2023/10/29 05:41:11;;;;;;;0.10;0.10;;;13.00;99.90;;;;;;5058413;28;20203;-78
2023/10/29 05:43:37;;;;;;;0.10;0.10;;;13.00;99.90;;;;;;5067667;28;20215;-77
2023/10/29 05:46:02;;;;;;;0.10;0.10;;;13.10;99.90;;;;;;5067260;28;20263;-77
2023/10/29 05:48:28;;;;;;;0.10;0.10;;;13.20;99.90;;;;;;5062081;28;20218;-77
2023/10/29 05:50:54;;;;;;;0.10;0.10;;;13.20;99.90;;;;;;5065483;28;20198;-77
2023/10/29 05:53:19;;;;;;;0.10;0.10;;;13.20;99.90;;;;;;5060096;28;20659;-78
2023/10/29 05:55:45;;;;;;;0.00;0.00;;;13.20;99.90;;;;;;5066270;28;20188;-78
2023/10/29 05:58:10;;;;;;;0.00;0.00;;;13.10;99.90;;;;;;5059751;28;20573;-77
2023/10/29 06:00:36;;;;;;;0.10;0.10;;;13.10;99.90;;;;;;5066875;28;20220;-77
2023/10/29 06:03:01;;;;;;;0.10;0.10;;;13.10;99.90;;;;;;5059744;28;20291;-77
2023/10/29 06:05:27;;;;;;;0.10;0.10;;;13.10;99.90;;;;;;5065792;28;20653;-78
2023/10/29 06:07:52;;;;;;;0.10;0.10;;;13.10;99.90;;;;;;5068211;28;20189;-78
2023/10/29 06:10:18;;;;;;;0.10;0.10;;;13.10;99.90;;;;;;5067076;28;20225;-77
2023/10/29 06:12:44;;;;;;;0.10;0.10;;;13.10;99.90;;;;;;5064580;28;20203;-77
2023/10/29 06:15:10;;;;;;;0.10;0.10;;;13.10;99.90;;;;;;5066665;28;20184;-77
2023/10/29 06:17:35;;;;;;;0.10;0.10;;;13.20;99.90;;;;;;5066828;28;21159;-78
2023/10/29 06:20:04;;;;;;;0.10;0.10;;;13.20;99.90;;;;;;5068821;28;20210;-78
2023/10/29 06:22:30;;;;;;;0.10;0.10;;;13.20;99.90;;;;;;5063649;28;20213;-78
2023/10/29 06:24:55;;;;;;;0.10;0.10;;;13.20;99.90;;;;;;5059231;28;20258;-78
2023/10/29 06:27:21;;;;;;;0.10;0.10;;;13.20;99.90;;;;;;5065339;28;20255;-78
2023/10/29 06:29:47;;;;;;;0.10;0.10;;;13.10;99.90;;;;;;5066660;28;20183;-78
2023/10/29 06:32:13;;;;;;;0.10;0.10;;;13.10;99.90;;;;;;5068822;28;20187;-78
2023/10/29 06:34:38;;;;;;;0.10;0.10;;;13.10;99.90;;;;;;5057836;28;20186;-77
2023/10/29 06:37:04;;;;;;;0.10;0.10;;;13.10;99.90;;;;;;5068689;28;20441;-77
2023/10/29 06:39:29;;;;;;;0.00;0.00;;;13.10;99.90;;;;;;5067133;28;20210;-78
2023/10/29 06:41:55;;;;;;;0.10;0.10;;;13.10;99.90;;;;;;5059438;28;20214;-77
2023/10/29 06:44:20;;;;;;;0.10;0.10;;;13.10;99.90;;;;;;5061245;28;20811;-77
2023/10/29 06:46:46;;;;;;;0.10;0.10;;;13.10;99.90;;;;;;5068942;28;20185;-77
2023/10/29 06:49:12;;;;;;;0.10;0.10;;;13.10;99.90;;;;;;5066029;28;20198;-77
2023/10/29 06:51:38;;;;;;;0.10;0.10;;;13.00;99.90;;;;;;5068198;28;20202;-77
2023/10/29 06:54:05;;;;;;;0.10;0.10;;;13.10;99.90;;;;;;5072195;28;20183;-78
2023/10/29 06:56:30;;;;;;;0.10;0.10;;;13.10;99.90;;;;;;5068322;28;20187;-77
2023/10/29 06:58:56;;;;;;;0.10;0.10;;;13.10;99.90;;;;;;5069664;28;20779;-78
2023/10/29 07:01:22;;;;;;;0.10;0.10;;;13.20;99.90;;;;;;5067236;28;20552;-78
2023/10/29 07:03:47;;;;;;;0.10;0.10;;;13.10;99.90;;;;;;5071003;28;20197;-77
2023/10/29 07:06:14;;;;;;;0.10;0.10;;;13.20;99.90;;;;;;5062959;28;20184;-78
2023/10/29 07:08:39;;;;;;;0.10;0.10;;;13.20;99.90;;;;;;5071185;28;20258;-77
2023/10/29 07:11:05;;;;;;;0.10;0.10;;;13.20;99.90;;;;;;5070366;28;20322;-77
2023/10/29 07:13:32;;;;;;;0.10;0.10;;;13.20;99.90;;;;;;5069116;28;20198;-76
2023/10/29 07:16:00;;;;;;;0.10;0.10;;;13.30;99.90;;;;;;5065750;28;20187;-77
2023/10/29 07:18:26;;;;;;;0.10;0.10;;;13.30;99.90;;;;;;5068622;28;20194;-77
2023/10/29 07:20:52;;;;;;;0.10;0.10;;;13.30;99.90;;;;;;5063397;28;20201;-77
2023/10/29 07:23:19;;;;;;;0.10;0.10;;;13.40;99.90;;;;;;5071748;28;20261;-77
2023/10/29 07:25:45;;;;;;;0.10;0.10;;;13.40;99.90;;;;;;5069500;28;20274;-77
2023/10/29 07:28:10;;;;;;;0.10;0.10;;;13.50;99.90;;;;;;5071236;28;20591;-78
2023/10/29 07:30:36;;;;;;;0.10;0.10;;;13.50;99.90;;;;;;5069626;28;20199;-78
2023/10/29 07:33:01;;;;;;;0.10;0.10;;;13.50;99.90;;;;;;5069834;28;20189;-78
2023/10/29 07:35:27;;;;;;;0.10;0.10;;;13.60;99.90;;;;;;5063705;28;20546;-78
2023/10/29 07:37:52;;;;;;;0.10;0.10;;;13.60;99.90;;;;;;5070874;28;20677;-78
2023/10/29 07:40:18;;;;;;;0.10;0.10;;;13.70;99.90;;;;;;5068528;28;20208;-78
2023/10/29 07:42:43;;;;;;;0.10;0.10;;;13.70;99.90;;;;;;5067779;28;20189;-78
2023/10/29 07:45:09;;;;;;;0.10;0.10;;;13.50;99.90;;;;;;5067215;28;20211;-78
2023/10/29 07:47:34;;;;;;;0.10;0.10;;;13.50;99.90;;;;;;5070392;28;20199;-78
2023/10/29 07:50:00;;;;;;;0.10;0.10;;;13.40;99.90;;;;;;5065697;28;20203;-77
2023/10/29 07:52:25;;;;;;;0.10;0.10;;;13.30;99.90;;;;;;5069675;28;20180;-77
2023/10/29 07:54:51;;;;;;;0.10;0.10;;;13.40;99.90;;;;;;5067511;28;20259;-77
2023/10/29 07:57:17;;;;;;;0.03;0.03;;;13.40;99.90;;;;;;5060569;28;20196;-77
2023/10/29 07:59:43;;;;;;;0.10;0.10;;;13.40;99.90;;;;;;5068146;28;20719;-80
2023/10/29 08:02:08;;;;;;;0.10;0.10;;;13.30;99.90;;;;;;5062381;28;20273;-77
2023/10/29 08:04:34;;;;;;;0.10;0.10;;;13.40;99.90;;;;;;5062733;28;20242;-77
2023/10/29 08:07:00;;;;;;;0.00;0.00;;;13.50;99.90;;;;;;5064167;28;20187;-78
2023/10/29 08:09:26;;;;;;;0.10;0.10;;;13.50;99.90;;;;;;5063359;28;20239;-78
2023/10/29 08:11:51;;;;;;;0.10;0.10;;;13.60;99.90;;;;;;5063182;28;20215;-78
2023/10/29 08:14:17;;;;;;;0.10;0.10;;;13.70;99.90;;;;;;5068387;28;20186;-78
2023/10/29 08:16:43;;;;;;;0.10;0.10;;;13.80;99.90;;;;;;5060746;28;20883;-78
2023/10/29 08:19:08;;;;;;;0.10;0.10;;;13.80;99.90;;;;;;5066691;28;20224;-79
2023/10/29 08:21:34;;;;;;;0.10;0.10;;;13.90;99.90;;;;;;5066377;28;20402;-78
2023/10/29 08:23:59;;;;;;;0.10;0.10;;;14.00;99.90;;;;;;5067722;28;20211;-79
2023/10/29 08:26:28;;;;;;;0.10;0.10;;;14.00;99.90;;;;;;5063913;28;20172;-79
2023/10/29 08:28:54;;;;;;;0.10;0.10;;;14.00;99.90;;;;;;5069808;28;20183;-78
2023/10/29 08:31:21;;;;;;;0.10;0.10;;;14.10;99.90;;;;;;5061394;28;20448;-79
2023/10/29 08:33:47;;;;;;;0.10;0.10;;;14.10;99.90;;;;;;5060111;28;20217;-78
2023/10/29 08:36:15;;;;;;;0.10;0.10;;;14.20;99.90;;;;;;5066692;28;20191;-78
2023/10/29 08:38:41;;;;;;;0.10;0.10;;;14.20;99.90;;;;;;5068535;28;20207;-78
2023/10/29 08:41:14;;;;;;;0.10;0.10;;;14.30;99.90;;;;;;5067077;28;20332;-78
2023/10/29 08:43:39;;;;;;;0.10;0.10;;;14.20;99.90;;;;;;5069479;28;20205;-78
2023/10/29 08:46:05;;;;;;;0.10;0.10;;;14.30;99.90;;;;;;5065906;28;20180;-78
2023/10/29 08:48:31;;;;;;;0.10;0.10;;;14.30;99.90;;;;;;5062733;28;20558;-79
2023/10/29 08:50:57;;;;;;;0.10;0.10;;;14.30;99.90;;;;;;5068868;28;20197;-79
2023/10/29 08:53:22;;;;;;;0.10;0.10;;;14.30;99.90;;;;;;5068452;28;20199;-80
2023/10/29 08:55:48;;;;;;;0.10;0.10;;;14.40;99.90;;;;;;5061401;28;20179;-79
2023/10/29 08:58:14;;;;;;;0.10;0.10;;;14.50;99.90;;;;;;5085224;28;21024;-78
2023/10/29 09:00:40;;;;;;;0.10;0.10;;;14.50;99.90;;;;;;5060059;28;20208;-78
2023/10/29 09:03:06;;;;;;;0.10;0.10;;;14.60;99.90;;;;;;5060315;28;20230;-79
2023/10/29 09:05:31;;;;;;;0.00;0.00;;;14.60;99.90;;;;;;5067993;28;20237;-79
2023/10/29 09:07:57;;;;;;;0.10;0.10;;;14.60;99.90;;;;;;5067465;28;20634;-78
2023/10/29 09:10:22;;;;;;;0.10;0.10;;;14.70;99.90;;;;;;5066776;28;20222;-78
2023/10/29 09:12:48;;;;;;;0.10;0.10;;;14.80;99.90;;;;;;5062700;28;20190;-78
2023/10/29 09:15:13;;;;;;;0.10;0.10;;;14.80;99.90;;;;;;5063932;28;20185;-78
2023/10/29 09:17:39;;;;;;;0.10;0.10;;;14.90;99.90;;;;;;5066783;28;20178;-78
2023/10/29 09:20:05;;;;;;;0.10;0.10;;;15.00;99.90;;;;;;5060472;28;20198;-78
2023/10/29 09:22:32;;;;;;;0.10;0.10;;;15.00;99.90;;;;;;5063118;28;20254;-78
2023/10/29 09:24:58;;;;;;;0.10;0.10;;;15.10;99.90;;;;;;5060920;28;20234;-78
2023/10/29 09:27:24;;;;;;;0.10;0.10;;;15.20;99.90;;;;;;5066117;28;20181;-78
2023/10/29 09:29:49;;;;;;;0.10;0.10;;;15.20;99.90;;;;;;5068523;28;20187;-79
2023/10/29 09:32:15;;;;;;;0.10;0.10;;;15.20;99.90;;;;;;5060527;28;20214;-81
2023/10/29 09:34:40;;;;;;;0.10;0.10;;;15.20;99.90;;;;;;5057996;28;20184;-79
2023/10/29 09:37:06;;;;;;;0.10;0.10;;;15.20;99.90;;;;;;5058548;28;20185;-78
2023/10/29 09:39:31;;;;;;;0.10;0.10;;;15.20;99.90;;;;;;5060393;28;20279;-78
2023/10/29 09:42:08;;;;;;;0.10;0.10;;;15.20;99.90;;;;;;5059359;28;20237;-83
2023/10/29 09:44:34;;;;;;;0.10;0.10;;;15.20;99.90;;;;;;5065496;28;20844;-78
2023/10/29 09:47:17;;;;;;;0.10;0.10;;;15.30;99.90;;;;;;5058379;28;20644;-79
2023/10/29 09:49:43;;;;;;;0.10;0.10;;;15.30;99.90;;;;;;5062152;28;20176;-79
2023/10/29 09:52:09;;;;;;;0.10;0.10;;;15.20;99.90;;;;;;5067528;28;20206;-79
2023/10/29 09:54:37;;;;;;;0.10;0.10;;;15.20;99.90;;;;;;5068087;28;20185;-79
2023/10/29 09:57:03;;;;;;;0.10;0.10;;;15.20;99.90;;;;;;5066126;28;20290;-79
2023/10/29 09:59:29;;;;;;;0.10;0.10;;;15.20;99.90;;;;;;5065759;28;21050;-78
2023/10/29 10:01:54;;;;;;;0.10;0.10;;;15.30;99.90;;;;;;5065280;28;20214;-78
2023/10/29 10:04:20;;;;;;;0.10;0.10;;;15.40;99.90;;;;;;5061091;28;20625;-79
2023/10/29 10:06:47;;;;;;;0.10;0.10;;;15.40;99.90;;;;;;5060945;28;20654;-78
2023/10/29 10:09:13;;;;;;;0.10;0.10;;;15.50;99.90;;;;;;5066820;28;20183;-78
2023/10/29 10:11:39;;;;;;;0.10;0.10;;;15.60;99.90;;;;;;5060594;28;20731;-79
2023/10/29 10:14:05;;;;;;;0.10;0.10;;;15.90;99.90;;;;;;5060848;28;20229;-78
2023/10/29 10:16:30;;;;;;;0.10;0.10;;;16.20;99.90;;;;;;5067148;28;20547;-78
2023/10/29 10:18:59;;;;;;;0.10;0.10;;;16.50;99.90;;;;;;5066267;28;20658;-78
2023/10/29 10:21:40;;;;;;;0.10;0.10;;;16.70;99.90;;;;;;5056951;28;20213;-78
2023/10/29 10:24:06;;;;;;;0.10;0.10;;;16.90;99.90;;;;;;5065971;28;20208;-79
2023/10/29 10:26:36;;;;;;;0.10;0.10;;;17.10;99.90;;;;;;5057405;28;20173;-78
2023/10/29 10:29:07;;;;;;;0.10;0.10;;;17.20;99.90;;;;;;5064981;28;20227;-78
2023/10/29 10:31:36;;;;;;;0.10;0.10;;;16.90;99.90;;;;;;5061862;28;20203;-78
2023/10/29 10:34:16;;;;;;;0.10;0.10;;;16.80;99.90;;;;;;5057258;28;20180;-78
2023/10/29 10:36:48;;;;;;;0.10;0.10;;;16.60;99.90;;;;;;5065875;28;20234;-78
2023/10/29 10:39:14;;;;;;;0.10;0.10;;;16.40;99.90;;;;;;5066194;28;20200;-78
2023/10/29 10:41:45;;;;;;;0.10;0.10;;;16.30;99.90;;;;;;5064776;28;20237;-80
2023/10/29 10:44:12;;;;;;;0.10;0.10;;;16.30;99.90;;;;;;5065516;28;20192;-80
2023/10/29 10:46:41;;;;;;;0.10;0.10;;;16.20;99.90;;;;;;5064579;28;20588;-79
2023/10/29 10:49:09;;;;;;;0.10;0.10;;;16.10;99.90;;;;;;5062216;28;20188;-79
2023/10/29 10:51:36;;;;;;;0.10;0.10;;;16.10;99.90;;;;;;5063541;28;20671;-80
2023/10/29 10:54:03;;;;;;;0.10;0.10;;;16.10;99.90;;;;;;5060800;28;20272;-79
2023/10/29 10:56:35;;;;;;;0.10;0.10;;;15.80;99.90;;;;;;5065261;28;20188;-79
2023/10/29 10:59:02;;;;;;;0.10;0.10;;;15.70;99.90;;;;;;5066346;28;20181;-79
2023/10/29 11:01:29;;;;;;;0.10;0.10;;;15.60;99.90;;;;;;5063131;28;20209;-79
2023/10/29 11:03:56;;;;;;;0.10;0.10;;;15.60;99.90;;;;;;5062937;28;20201;-79
2023/10/29 11:06:22;;;;;;;0.10;0.10;;;15.50;99.90;;;;;;5066779;28;20276;-78
2023/10/29 11:08:48;;;;;;;0.10;0.10;;;15.60;99.90;;;;;;5065591;28;20264;-78
2023/10/29 11:11:14;;;;;;;0.10;0.10;;;15.50;99.90;;;;;;5065436;28;20240;-79
2023/10/29 11:13:40;;;;;;;0.10;0.10;;;15.50;99.90;;;;;;5065485;28;20675;-79
2023/10/29 11:16:20;;;;;;;0.10;0.10;;;15.50;99.90;;;;;;5066310;28;20250;-78
2023/10/29 11:18:46;;;;;;;0.10;0.10;;;15.40;99.90;;;;;;5057634;28;20181;-79
2023/10/29 11:21:30;;;;;;;0.10;0.10;;;15.40;99.90;;;;;;5058022;28;20211;-78
2023/10/29 11:24:16;;;;;;;0.10;0.10;;;15.50;99.90;;;;;;5067656;28;20196;-79
2023/10/29 11:26:42;;;;;;;0.10;0.10;;;15.50;99.90;;;;;;5068204;28;20222;-79
2023/10/29 11:29:07;;;;;;;0.10;0.10;;;15.40;99.90;;;;;;5058758;28;20264;-79
2023/10/29 11:31:33;;;;;;;0.10;0.10;;;15.40;99.90;;;;;;5070517;28;20632;-78
2023/10/29 11:33:58;;;;;;;0.10;0.10;;;15.50;99.90;;;;;;5070061;28;20188;-78
2023/10/29 11:36:32;;;;;;;0.10;0.10;;;15.40;99.90;;;;;;5061141;28;21203;-78
2023/10/29 11:39:16;;;;;;;0.10;0.10;;;15.40;99.90;;;;;;5069656;28;20226;-78
2023/10/29 11:41:45;;;;;;;0.10;0.10;;;15.40;99.90;;;;;;5069971;28;20236;-78
2023/10/29 11:44:25;;;;;;;0.10;0.10;;;15.30;99.90;;;;;;5068548;28;20210;-79
2023/10/29 11:47:01;;;;;;;0.10;0.10;;;15.30;99.90;;;;;;5062077;28;20275;-79
2023/10/29 11:49:29;;;;;;;0.10;0.10;;;15.30;99.90;;;;;;5071564;28;20184;-79
2023/10/29 11:52:02;;;;;;;0.10;0.10;;;15.30;99.90;;;;;;5070931;28;20629;-78
2023/10/29 11:54:32;;;;;;;0.10;0.10;;;15.30;99.90;;;;;;5069467;28;21137;-79
2023/10/29 11:56:58;;;;;;;0.10;0.10;;;15.50;99.90;;;;;;5070244;28;20184;-78
2023/10/29 11:59:25;;;;;;;0.10;0.10;;;15.50;99.90;;;;;;5069006;28;20193;-78
2023/10/29 12:01:52;;;;;;;0.10;0.10;;;15.50;99.90;;;;;;5068613;28;20207;-78
2023/10/29 12:04:17;;;;;;;0.10;0.10;;;15.40;99.90;;;;;;5068130;28;20644;-79
2023/10/29 12:06:45;;;;;;;0.10;0.10;;;15.40;99.90;;;;;;5062221;28;20180;-79
2023/10/29 12:09:18;;;;;;;0.10;0.10;;;15.40;99.90;;;;;;5067905;28;20173;-79
2023/10/29 12:11:49;;;;;;;0.10;0.10;;;15.30;99.90;;;;;;5069456;28;20638;-79
2023/10/29 12:14:34;;;;;;;0.10;0.10;;;15.40;99.90;;;;;;5067729;28;20185;-78
2023/10/29 12:17:00;;;;;;;0.10;0.10;;;15.30;99.90;;;;;;5067935;28;20200;-78
2023/10/29 12:19:35;;;;;;;0.10;0.10;;;15.30;99.90;;;;;;5084442;28;20189;-79
2023/10/29 12:22:00;;;;;;;0.10;0.10;;;15.30;99.90;;;;;;5065179;28;20801;-79
2023/10/29 12:24:26;;;;;;;0.10;0.10;;;15.30;99.90;;;;;;5060510;28;20199;-79
2023/10/29 12:26:52;;;;;;;0.10;0.10;;;15.20;99.90;;;;;;5061804;28;20196;-79
2023/10/29 12:29:18;;;;;;;0.10;0.10;;;15.10;99.90;;;;;;5066372;28;20653;-78
2023/10/29 12:31:47;;;;;;;0.10;0.10;;;14.90;99.90;;;;;;5068520;28;20209;-80
2023/10/29 12:34:12;;;;;;;0.10;0.10;;;14.90;99.90;;;;;;5064284;28;20267;-78
2023/10/29 12:36:38;;;;;;;0.10;0.10;;;14.80;99.90;;;;;;5068239;28;20271;-79
2023/10/29 12:39:04;;;;;;;0.10;0.10;;;14.90;99.90;;;;;;5062935;28;20180;-79
2023/10/29 12:41:31;;;;;;;0.10;0.10;;;14.90;99.90;;;;;;5062833;28;20207;-79
2023/10/29 12:43:57;;;;;;;0.10;0.10;;;14.80;99.90;;;;;;5068984;28;20211;-79
2023/10/29 12:46:26;;;;;;;0.10;0.10;;;14.80;99.90;;;;;;5069058;28;20185;-79